sensor_id;sensor_type;location;lat;lon;timestamp;temperature;humidity
70202;DHT22;57724;52.164;5.408;2022-09-30T00:01:10;9.70;98.50
70202;DHT22;57724;52.164;5.408;2022-09-30T00:03:37;10.20;95.50
70202;DHT22;57724;52.164;5.408;2022-09-30T00:06:05;11.10;92.50
70202;DHT22;57724;52.164;5.408;2022-09-30T00:08:35;10.50;92.40
70202;DHT22;57724;52.164;5.408;2022-09-30T00:11:10;10.30;91.60
70202;DHT22;57724;52.164;5.408;2022-09-30T00:13:39;10.40;92.50
70202;DHT22;57724;52.164;5.408;2022-09-30T00:16:09;9.60;98.60
70202;DHT22;57724;52.164;5.408;2022-09-30T00:18:36;11.20;99.10
70202;DHT22;57724;52.164;5.408;2022-09-30T00:21:04;9.70;93.50
70202;DHT22;57724;52.164;5.408;2022-09-30T00:23:33;10.30;93.00
70202;DHT22;57724;52.164;5.408;2022-09-30T00:26:01;9.50;98.70
70202;DHT22;57724;52.164;5.408;2022-09-30T00:28:29;8.90;98.60
70202;DHT22;57724;52.164;5.408;2022-09-30T00:31:00;10.80;95.70
70202;DHT22;57724;52.164;5.408;2022-09-30T00:33:28;10.10;99.20
70202;DHT22;57724;52.164;5.408;2022-09-30T00:35:54;11.00;99.30
70202;DHT22;57724;52.164;5.408;2022-09-30T00:38:21;9.00;98.90
70202;DHT22;57724;52.164;5.408;2022-09-30T00:43:20;9.70;93.00
70202;DHT22;57724;52.164;5.408;2022-09-30T00:45:56;10.40;99.60
70202;DHT22;57724;52.164;5.408;2022-09-30T00:48:31;8.40;99.30
70202;DHT22;57724;52.164;5.408;2022-09-30T00:51:01;10.00;99.70
70202;DHT22;57724;52.164;5.408;2022-09-30T00:53:35;10.30;99.80
70202;DHT22;57724;52.164;5.408;2022-09-30T00:56:11;9.80;92.50
70202;DHT22;57724;52.164;5.408;2022-09-30T00:58:45;10.70;99.80
70202;DHT22;57724;52.164;5.408;2022-09-30T01:03:43;11.10;99.90
70202;DHT22;57724;52.164;5.408;2022-09-30T01:08:39;8.80;99.30
70202;DHT22;57724;52.164;5.408;2022-09-30T01:11:06;9.60;99.30
70202;DHT22;57724;52.164;5.408;2022-09-30T01:19:00;9.50;94.50
70202;DHT22;57724;52.164;5.408;2022-09-30T01:27:29;9.20;95.50
70202;DHT22;57724;52.164;5.408;2022-09-30T01:30:07;10.30;93.10
70202;DHT22;57724;52.164;5.408;2022-09-30T01:35:26;9.40;98.60
70202;DHT22;57724;52.164;5.408;2022-09-30T01:41:09;10.20;91.60
70202;DHT22;57724;52.164;5.408;2022-09-30T01:51:23;8.90;98.60
70202;DHT22;57724;52.164;5.408;2022-09-30T01:54:06;11.20;99.30
70202;DHT22;57724;52.164;5.408;2022-09-30T01:56:42;11.10;97.20
70202;DHT22;57724;52.164;5.408;2022-09-30T01:59:14;9.00;99.00
70202;DHT22;57724;52.164;5.408;2022-09-30T02:01:52;9.90;99.30
70202;DHT22;57724;52.164;5.408;2022-09-30T02:04:28;9.40;99.40
70202;DHT22;57724;52.164;5.408;2022-09-30T02:07:00;8.70;99.30
70202;DHT22;57724;52.164;5.408;2022-09-30T02:09:40;9.30;93.70
70202;DHT22;57724;52.164;5.408;2022-09-30T02:12:12;8.10;99.60
70202;DHT22;57724;52.164;5.408;2022-09-30T02:14:44;9.20;93.50
70202;DHT22;57724;52.164;5.408;2022-09-30T02:17:19;7.90;99.50
70202;DHT22;57724;52.164;5.408;2022-09-30T02:20:04;10.40;99.90
70202;DHT22;57724;52.164;5.408;2022-09-30T02:22:44;9.00;95.80
70202;DHT22;57724;52.164;5.408;2022-09-30T02:25:17;8.80;99.90
70202;DHT22;57724;52.164;5.408;2022-09-30T02:27:51;10.50;99.90
70202;DHT22;57724;52.164;5.408;2022-09-30T02:33:07;9.30;99.90
70202;DHT22;57724;52.164;5.408;2022-09-30T02:35:42;10.70;99.90
70202;DHT22;57724;52.164;5.408;2022-09-30T02:38:20;9.40;99.90
70202;DHT22;57724;52.164;5.408;2022-09-30T02:41:01;9.30;95.20
70202;DHT22;57724;52.164;5.408;2022-09-30T02:43:32;10.10;95.00
70202;DHT22;57724;52.164;5.408;2022-09-30T02:46:55;9.10;99.90
70202;DHT22;57724;52.164;5.408;2022-09-30T02:49:30;9.80;93.70
70202;DHT22;57724;52.164;5.408;2022-09-30T02:52:09;7.90;95.70
70202;DHT22;57724;52.164;5.408;2022-09-30T03:00:05;9.70;93.60
70202;DHT22;57724;52.164;5.408;2022-09-30T03:05:06;9.20;99.90
70202;DHT22;57724;52.164;5.408;2022-09-30T03:07:34;11.10;95.00
70202;DHT22;57724;52.164;5.408;2022-09-30T03:10:12;9.00;99.40
70202;DHT22;57724;52.164;5.408;2022-09-30T03:21:02;10.50;99.90
70202;DHT22;57724;52.164;5.408;2022-09-30T03:26:24;9.20;94.30
70202;DHT22;57724;52.164;5.408;2022-09-30T03:29:14;9.20;93.10
70202;DHT22;57724;52.164;5.408;2022-09-30T03:32:10;9.10;93.50
70202;DHT22;57724;52.164;5.408;2022-09-30T03:42:53;7.60;99.90
70202;DHT22;57724;52.164;5.408;2022-09-30T03:45:32;7.40;93.10
70202;DHT22;57724;52.164;5.408;2022-09-30T03:48:04;7.40;99.90
70202;DHT22;57724;52.164;5.408;2022-09-30T03:50:34;7.30;99.90
70202;DHT22;57724;52.164;5.408;2022-09-30T03:53:02;7.80;99.90
70202;DHT22;57724;52.164;5.408;2022-09-30T03:55:30;8.10;99.90
70202;DHT22;57724;52.164;5.408;2022-09-30T04:00:26;7.60;99.90
70202;DHT22;57724;52.164;5.408;2022-09-30T04:02:52;9.50;99.90
70202;DHT22;57724;52.164;5.408;2022-09-30T04:07:50;8.40;99.90
70202;DHT22;57724;52.164;5.408;2022-09-30T04:12:44;9.40;99.90
70202;DHT22;57724;52.164;5.408;2022-09-30T04:15:11;9.70;99.90
70202;DHT22;57724;52.164;5.408;2022-09-30T04:20:05;7.30;99.90
70202;DHT22;57724;52.164;5.408;2022-09-30T04:24:58;7.00;99.90
70202;DHT22;57724;52.164;5.408;2022-09-30T04:27:25;7.10;99.90
70202;DHT22;57724;52.164;5.408;2022-09-30T04:29:52;8.40;99.90
70202;DHT22;57724;52.164;5.408;2022-09-30T04:32:21;9.60;99.90
70202;DHT22;57724;52.164;5.408;2022-09-30T04:37:17;9.60;99.90
70202;DHT22;57724;52.164;5.408;2022-09-30T04:42:11;7.30;99.90
70202;DHT22;57724;52.164;5.408;2022-09-30T04:47:05;7.20;99.10
70202;DHT22;57724;52.164;5.408;2022-09-30T04:49:32;9.40;99.90
70202;DHT22;57724;52.164;5.408;2022-09-30T04:54:26;9.50;99.90
70202;DHT22;57724;52.164;5.408;2022-09-30T04:56:52;7.20;99.90
70202;DHT22;57724;52.164;5.408;2022-09-30T05:01:46;8.50;99.90
70202;DHT22;57724;52.164;5.408;2022-09-30T05:04:13;9.70;99.90
70202;DHT22;57724;52.164;5.408;2022-09-30T05:06:41;7.70;99.90
70202;DHT22;57724;52.164;5.408;2022-09-30T05:09:08;8.20;98.50
70202;DHT22;57724;52.164;5.408;2022-09-30T05:11:35;8.70;99.90
70202;DHT22;57724;52.164;5.408;2022-09-30T05:14:08;8.50;99.90
70202;DHT22;57724;52.164;5.408;2022-09-30T05:16:35;7.90;99.90
70202;DHT22;57724;52.164;5.408;2022-09-30T05:19:02;9.70;99.90
70202;DHT22;57724;52.164;5.408;2022-09-30T05:21:29;9.40;99.90
70202;DHT22;57724;52.164;5.408;2022-09-30T05:23:55;9.40;99.90
70202;DHT22;57724;52.164;5.408;2022-09-30T05:26:24;8.30;94.50
70202;DHT22;57724;52.164;5.408;2022-09-30T05:31:18;9.60;99.90
70202;DHT22;57724;52.164;5.408;2022-09-30T05:33:46;9.70;99.90
70202;DHT22;57724;52.164;5.408;2022-09-30T05:36:15;7.60;97.80
70202;DHT22;57724;52.164;5.408;2022-09-30T05:41:13;9.70;95.60
70202;DHT22;57724;52.164;5.408;2022-09-30T05:43:41;8.30;99.90
70202;DHT22;57724;52.164;5.408;2022-09-30T05:46:10;8.00;99.90
70202;DHT22;57724;52.164;5.408;2022-09-30T05:51:05;8.80;99.90
70202;DHT22;57724;52.164;5.408;2022-09-30T05:53:35;7.70;99.90
70202;DHT22;57724;52.164;5.408;2022-09-30T05:56:08;8.20;99.90
70202;DHT22;57724;52.164;5.408;2022-09-30T05:58:35;8.00;99.90
70202;DHT22;57724;52.164;5.408;2022-09-30T06:01:06;9.30;99.90
70202;DHT22;57724;52.164;5.408;2022-09-30T06:03:40;10.40;99.90
70202;DHT22;57724;52.164;5.408;2022-09-30T06:06:07;11.20;96.90
70202;DHT22;57724;52.164;5.408;2022-09-30T06:08:33;10.30;99.90
70202;DHT22;57724;52.164;5.408;2022-09-30T06:15:59;8.20;92.30
70202;DHT22;57724;52.164;5.408;2022-09-30T06:18:28;10.40;99.90
70202;DHT22;57724;52.164;5.408;2022-09-30T06:20:56;8.80;99.90
70202;DHT22;57724;52.164;5.408;2022-09-30T06:23:24;9.50;96.40
70202;DHT22;57724;52.164;5.408;2022-09-30T06:25:52;10.90;94.70
70202;DHT22;57724;52.164;5.408;2022-09-30T06:28:20;10.50;94.40
70202;DHT22;57724;52.164;5.408;2022-09-30T06:30:48;11.90;93.20
70202;DHT22;57724;52.164;5.408;2022-09-30T06:33:15;11.50;99.60
70202;DHT22;57724;52.164;5.408;2022-09-30T06:35:43;12.70;99.10
70202;DHT22;57724;52.164;5.408;2022-09-30T06:38:14;14.30;99.10
70202;DHT22;57724;52.164;5.408;2022-09-30T06:40:44;15.10;98.60
70202;DHT22;57724;52.164;5.408;2022-09-30T06:43:17;14.50;90.60
70202;DHT22;57724;52.164;5.408;2022-09-30T06:45:45;15.00;90.10
70202;DHT22;57724;52.164;5.408;2022-09-30T06:48:12;14.90;92.00
70202;DHT22;57724;52.164;5.408;2022-09-30T06:50:40;15.50;94.40
70202;DHT22;57724;52.164;5.408;2022-09-30T06:55:40;16.70;93.10
70202;DHT22;57724;52.164;5.408;2022-09-30T06:58:12;17.40;92.70
70202;DHT22;57724;52.164;5.408;2022-09-30T07:03:06;18.50;90.70
70202;DHT22;57724;52.164;5.408;2022-09-30T07:05:36;18.90;89.90
70202;DHT22;57724;52.164;5.408;2022-09-30T07:10:31;19.70;86.40
70202;DHT22;57724;52.164;5.408;2022-09-30T07:12:57;20.20;84.50
70202;DHT22;57724;52.164;5.408;2022-09-30T07:17:52;20.50;81.90
70202;DHT22;57724;52.164;5.408;2022-09-30T07:20:20;21.20;78.20
70202;DHT22;57724;52.164;5.408;2022-09-30T07:22:46;21.70;80.70
70202;DHT22;57724;52.164;5.408;2022-09-30T07:25:13;22.60;78.70
70202;DHT22;57724;52.164;5.408;2022-09-30T07:27:41;23.00;76.60
70202;DHT22;57724;52.164;5.408;2022-09-30T07:30:08;23.20;74.90
70202;DHT22;57724;52.164;5.408;2022-09-30T07:32:46;23.80;73.80
70202;DHT22;57724;52.164;5.408;2022-09-30T07:35:13;24.00;71.80
70202;DHT22;57724;52.164;5.408;2022-09-30T07:37:39;24.30;71.90
70202;DHT22;57724;52.164;5.408;2022-09-30T07:40:07;24.00;70.10
70202;DHT22;57724;52.164;5.408;2022-09-30T07:42:39;24.50;69.80
70202;DHT22;57724;52.164;5.408;2022-09-30T07:45:10;26.00;57.30
70202;DHT22;57724;52.164;5.408;2022-09-30T07:47:38;24.90;70.10
70202;DHT22;57724;52.164;5.408;2022-09-30T07:50:05;25.60;55.30
70202;DHT22;57724;52.164;5.408;2022-09-30T07:52:35;26.00;52.90
70202;DHT22;57724;52.164;5.408;2022-09-30T07:55:02;27.40;66.50
70202;DHT22;57724;52.164;5.408;2022-09-30T07:57:29;26.30;51.40
70202;DHT22;57724;52.164;5.408;2022-09-30T07:59:56;26.80;51.30
70202;DHT22;57724;52.164;5.408;2022-09-30T08:02:22;27.10;50.20
70202;DHT22;57724;52.164;5.408;2022-09-30T08:04:50;27.80;61.20
70202;DHT22;57724;52.164;5.408;2022-09-30T08:07:17;28.30;48.60
70202;DHT22;57724;52.164;5.408;2022-09-30T08:09:43;28.80;48.00
70202;DHT22;57724;52.164;5.408;2022-09-30T08:12:10;28.80;46.10
70202;DHT22;57724;52.164;5.408;2022-09-30T08:14:37;29.40;58.10
70202;DHT22;57724;52.164;5.408;2022-09-30T08:17:04;29.50;43.00
70202;DHT22;57724;52.164;5.408;2022-09-30T08:19:31;29.60;43.00
70202;DHT22;57724;52.164;5.408;2022-09-30T08:21:59;29.80;42.20
70202;DHT22;57724;52.164;5.408;2022-09-30T08:24:26;29.80;42.00
70202;DHT22;57724;52.164;5.408;2022-09-30T08:26:54;30.20;41.80
70202;DHT22;57724;52.164;5.408;2022-09-30T08:29:21;30.90;41.60
70202;DHT22;57724;52.164;5.408;2022-09-30T08:32:08;31.10;40.60
70202;DHT22;57724;52.164;5.408;2022-09-30T08:34:35;31.40;39.10
70202;DHT22;57724;52.164;5.408;2022-09-30T08:37:03;31.20;38.10
70202;DHT22;57724;52.164;5.408;2022-09-30T08:39:38;31.20;38.60
70202;DHT22;57724;52.164;5.408;2022-09-30T08:51:00;32.40;34.50
70202;DHT22;57724;52.164;5.408;2022-09-30T08:53:32;32.60;34.30
70202;DHT22;57724;52.164;5.408;2022-09-30T08:56:01;33.10;36.10
70202;DHT22;57724;52.164;5.408;2022-09-30T08:58:35;33.20;35.90
70202;DHT22;57724;52.164;5.408;2022-09-30T09:01:14;33.70;34.20
70202;DHT22;57724;52.164;5.408;2022-09-30T09:03:45;33.60;31.70
70202;DHT22;57724;52.164;5.408;2022-09-30T09:06:21;33.30;33.30
70202;DHT22;57724;52.164;5.408;2022-09-30T09:20:56;34.80;29.60
70202;DHT22;57724;52.164;5.408;2022-09-30T09:23:24;33.70;43.90
70202;DHT22;57724;52.164;5.408;2022-09-30T09:25:51;33.60;31.20
70202;DHT22;57724;52.164;5.408;2022-09-30T09:28:36;33.70;31.10
70202;DHT22;57724;52.164;5.408;2022-09-30T09:31:12;33.00;30.10
70202;DHT22;57724;52.164;5.408;2022-09-30T09:33:44;30.70;46.50
70202;DHT22;57724;52.164;5.408;2022-09-30T09:36:31;30.60;34.10
70202;DHT22;57724;52.164;5.408;2022-09-30T09:45:28;27.40;54.30
70202;DHT22;57724;52.164;5.408;2022-09-30T09:47:57;28.50;54.20
70202;DHT22;57724;52.164;5.408;2022-09-30T09:50:47;29.10;49.70
70202;DHT22;57724;52.164;5.408;2022-09-30T09:53:19;30.30;49.10
70202;DHT22;57724;52.164;5.408;2022-09-30T09:55:48;30.60;40.50
70202;DHT22;57724;52.164;5.408;2022-09-30T09:58:15;30.60;39.00
70202;DHT22;57724;52.164;5.408;2022-09-30T10:00:44;30.80;37.60
70202;DHT22;57724;52.164;5.408;2022-09-30T10:03:20;31.30;35.90
70202;DHT22;57724;52.164;5.408;2022-09-30T10:08:29;31.60;35.70
70202;DHT22;57724;52.164;5.408;2022-09-30T10:10:59;32.20;35.20
70202;DHT22;57724;52.164;5.408;2022-09-30T10:13:43;32.70;48.60
70202;DHT22;57724;52.164;5.408;2022-09-30T10:16:39;31.90;35.10
70202;DHT22;57724;52.164;5.408;2022-09-30T10:19:21;31.30;47.70
70202;DHT22;57724;52.164;5.408;2022-09-30T10:21:48;31.70;35.60
70202;DHT22;57724;52.164;5.408;2022-09-30T10:24:27;31.10;48.20
70202;DHT22;57724;52.164;5.408;2022-09-30T10:26:55;31.50;35.90
70202;DHT22;57724;52.164;5.408;2022-09-30T10:29:33;30.40;48.50
70202;DHT22;57724;52.164;5.408;2022-09-30T10:32:07;31.60;51.20
70202;DHT22;57724;52.164;5.408;2022-09-30T10:34:39;30.30;37.10
70202;DHT22;57724;52.164;5.408;2022-09-30T10:39:42;29.90;35.90
70202;DHT22;57724;52.164;5.408;2022-09-30T10:42:19;30.10;38.60
70202;DHT22;57724;52.164;5.408;2022-09-30T10:45:26;30.40;36.70
70202;DHT22;57724;52.164;5.408;2022-09-30T10:47:54;30.20;50.40
70202;DHT22;57724;52.164;5.408;2022-09-30T10:50:24;30.40;52.30
70202;DHT22;57724;52.164;5.408;2022-09-30T10:52:59;30.00;38.00
70202;DHT22;57724;52.164;5.408;2022-09-30T10:55:31;29.00;49.60
70202;DHT22;57724;52.164;5.408;2022-09-30T11:06:37;28.20;53.10
70202;DHT22;57724;52.164;5.408;2022-09-30T11:09:19;27.70;53.00
70202;DHT22;57724;52.164;5.408;2022-09-30T11:11:52;26.30;54.10
70202;DHT22;57724;52.164;5.408;2022-09-30T11:14:41;25.80;57.10
70202;DHT22;57724;52.164;5.408;2022-09-30T11:20:02;27.40;57.50
70202;DHT22;57724;52.164;5.408;2022-09-30T11:22:45;27.90;40.40
70202;DHT22;57724;52.164;5.408;2022-09-30T11:25:22;27.80;55.20
70202;DHT22;57724;52.164;5.408;2022-09-30T11:31:11;26.70;41.60
70202;DHT22;57724;52.164;5.408;2022-09-30T11:34:06;26.40;44.90
70202;DHT22;57724;52.164;5.408;2022-09-30T11:37:17;26.80;42.70
70202;DHT22;57724;52.164;5.408;2022-09-30T11:40:03;26.10;56.50
70202;DHT22;57724;52.164;5.408;2022-09-30T11:48:07;26.70;42.20
70202;DHT22;57724;52.164;5.408;2022-09-30T11:51:04;27.60;58.10
70202;DHT22;57724;52.164;5.408;2022-09-30T11:54:15;27.70;56.40
70202;DHT22;57724;52.164;5.408;2022-09-30T11:57:05;28.70;56.30
70202;DHT22;57724;52.164;5.408;2022-09-30T11:59:47;27.10;54.60
70202;DHT22;57724;52.164;5.408;2022-09-30T12:05:12;25.50;44.80
70202;DHT22;57724;52.164;5.408;2022-09-30T12:08:03;25.40;59.90
70202;DHT22;57724;52.164;5.408;2022-09-30T12:11:11;23.80;61.40
70202;DHT22;57724;52.164;5.408;2022-09-30T12:13:42;22.70;64.90
70202;DHT22;57724;52.164;5.408;2022-09-30T12:16:18;24.00;49.10
70202;DHT22;57724;52.164;5.408;2022-09-30T12:18:52;26.10;63.30
70202;DHT22;57724;52.164;5.408;2022-09-30T12:21:25;24.20;62.30
70202;DHT22;57724;52.164;5.408;2022-09-30T12:24:13;25.30;45.20
70202;DHT22;57724;52.164;5.408;2022-09-30T12:26:43;24.30;47.30
70202;DHT22;57724;52.164;5.408;2022-09-30T12:41:14;22.20;54.80
70202;DHT22;57724;52.164;5.408;2022-09-30T12:43:55;22.70;51.80
70202;DHT22;57724;52.164;5.408;2022-09-30T12:49:25;24.20;52.60
70202;DHT22;57724;52.164;5.408;2022-09-30T12:51:57;22.60;52.30
70202;DHT22;57724;52.164;5.408;2022-09-30T12:54:29;22.80;67.80
70202;DHT22;57724;52.164;5.408;2022-09-30T12:57:00;24.10;68.80
70202;DHT22;57724;52.164;5.408;2022-09-30T12:59:32;24.10;68.60
70202;DHT22;57724;52.164;5.408;2022-09-30T13:02:01;22.60;53.60
70202;DHT22;57724;52.164;5.408;2022-09-30T13:04:30;22.70;54.80
70202;DHT22;57724;52.164;5.408;2022-09-30T13:09:56;23.70;55.90
70202;DHT22;57724;52.164;5.408;2022-09-30T13:12:44;22.50;70.10
70202;DHT22;57724;52.164;5.408;2022-09-30T13:17:54;21.30;72.90
70202;DHT22;57724;52.164;5.408;2022-09-30T13:20:56;20.40;58.10
70202;DHT22;57724;52.164;5.408;2022-09-30T13:23:49;21.30;75.70
70202;DHT22;57724;52.164;5.408;2022-09-30T13:28:51;20.60;74.00
70202;DHT22;57724;52.164;5.408;2022-09-30T13:31:22;21.60;59.50
70202;DHT22;57724;52.164;5.408;2022-09-30T13:34:08;21.90;57.20
70202;DHT22;57724;52.164;5.408;2022-09-30T13:37:02;22.00;56.80
70202;DHT22;57724;52.164;5.408;2022-09-30T13:39:29;22.60;72.40
70202;DHT22;57724;52.164;5.408;2022-09-30T13:42:07;21.20;61.20
70202;DHT22;57724;52.164;5.408;2022-09-30T13:47:27;21.90;72.80
70202;DHT22;57724;52.164;5.408;2022-09-30T13:52:48;21.00;72.40
70202;DHT22;57724;52.164;5.408;2022-09-30T13:55:24;21.40;69.20
70202;DHT22;57724;52.164;5.408;2022-09-30T14:01:23;20.80;62.30
70202;DHT22;57724;52.164;5.408;2022-09-30T14:12:45;22.30;72.60
70202;DHT22;57724;52.164;5.408;2022-09-30T14:21:34;20.20;65.10
70202;DHT22;57724;52.164;5.408;2022-09-30T14:26:56;19.40;70.60
70202;DHT22;57724;52.164;5.408;2022-09-30T14:33:15;19.00;73.10
70202;DHT22;57724;52.164;5.408;2022-09-30T14:38:23;20.10;61.80
70202;DHT22;57724;52.164;5.408;2022-09-30T14:40:55;20.10;67.50
70202;DHT22;57724;52.164;5.408;2022-09-30T14:43:27;18.90;65.30
70202;DHT22;57724;52.164;5.408;2022-09-30T14:46:13;18.80;75.00
70202;DHT22;57724;52.164;5.408;2022-09-30T14:48:43;19.60;75.90
70202;DHT22;57724;52.164;5.408;2022-09-30T14:51:13;18.70;75.30
70202;DHT22;57724;52.164;5.408;2022-09-30T14:56:26;19.40;75.40
70202;DHT22;57724;52.164;5.408;2022-09-30T14:58:57;19.90;72.80
70202;DHT22;57724;52.164;5.408;2022-09-30T15:01:32;19.90;60.00
70202;DHT22;57724;52.164;5.408;2022-09-30T15:04:08;20.50;76.10
70202;DHT22;57724;52.164;5.408;2022-09-30T15:06:37;19.00;75.30
70202;DHT22;57724;52.164;5.408;2022-09-30T15:09:16;21.30;76.90
70202;DHT22;57724;52.164;5.408;2022-09-30T15:11:44;18.80;76.00
70202;DHT22;57724;52.164;5.408;2022-09-30T15:14:15;20.20;77.00
70202;DHT22;57724;52.164;5.408;2022-09-30T15:16:51;19.40;77.10
70202;DHT22;57724;52.164;5.408;2022-09-30T15:19:21;20.60;77.70
70202;DHT22;57724;52.164;5.408;2022-09-30T15:21:53;18.90;76.40
70202;DHT22;57724;52.164;5.408;2022-09-30T15:24:22;18.50;76.50
70202;DHT22;57724;52.164;5.408;2022-09-30T15:26:51;18.50;76.80
70202;DHT22;57724;52.164;5.408;2022-09-30T15:29:18;18.50;76.70
70202;DHT22;57724;52.164;5.408;2022-09-30T15:31:57;19.60;63.30
70202;DHT22;57724;52.164;5.408;2022-09-30T15:34:27;20.20;78.10
70202;DHT22;57724;52.164;5.408;2022-09-30T15:37:00;18.20;77.50
70202;DHT22;57724;52.164;5.408;2022-09-30T15:39:39;20.40;67.60
70202;DHT22;57724;52.164;5.408;2022-09-30T15:45:35;18.50;79.40
70202;DHT22;57724;52.164;5.408;2022-09-30T15:53:22;18.30;65.10
70202;DHT22;57724;52.164;5.408;2022-09-30T15:55:56;18.50;82.40
70202;DHT22;57724;52.164;5.408;2022-09-30T15:58:38;18.10;67.00
70202;DHT22;57724;52.164;5.408;2022-09-30T16:01:19;17.20;80.10
70202;DHT22;57724;52.164;5.408;2022-09-30T16:06:52;17.80;67.90
70202;DHT22;57724;52.164;5.408;2022-09-30T16:12:00;16.80;83.70
70202;DHT22;57724;52.164;5.408;2022-09-30T16:14:38;19.10;85.50
70202;DHT22;57724;52.164;5.408;2022-09-30T16:17:26;18.80;85.90
70202;DHT22;57724;52.164;5.408;2022-09-30T16:20:01;17.40;69.90
70202;DHT22;57724;52.164;5.408;2022-09-30T16:22:49;16.60;72.50
70202;DHT22;57724;52.164;5.408;2022-09-30T16:27:44;16.10;78.30
70202;DHT22;57724;52.164;5.408;2022-09-30T16:30:18;18.10;88.00
70202;DHT22;57724;52.164;5.408;2022-09-30T16:32:51;17.70;88.60
70202;DHT22;57724;52.164;5.408;2022-09-30T16:35:21;18.20;84.50
70202;DHT22;57724;52.164;5.408;2022-09-30T16:38:04;18.10;89.00
70202;DHT22;57724;52.164;5.408;2022-09-30T16:40:32;18.20;89.60
70202;DHT22;57724;52.164;5.408;2022-09-30T16:45:33;15.80;88.70
70202;DHT22;57724;52.164;5.408;2022-09-30T16:48:04;16.90;76.50
70202;DHT22;57724;52.164;5.408;2022-09-30T16:50:46;16.10;77.50
70202;DHT22;57724;52.164;5.408;2022-09-30T16:53:14;16.00;89.60
70202;DHT22;57724;52.164;5.408;2022-09-30T16:55:43;17.60;90.30
70202;DHT22;57724;52.164;5.408;2022-09-30T16:58:11;15.90;90.10
70202;DHT22;57724;52.164;5.408;2022-09-30T17:00:41;17.50;85.80
70202;DHT22;57724;52.164;5.408;2022-09-30T17:03:12;15.70;90.20
70202;DHT22;57724;52.164;5.408;2022-09-30T17:05:42;16.00;76.90
70202;DHT22;57724;52.164;5.408;2022-09-30T17:08:11;16.00;77.10
70202;DHT22;57724;52.164;5.408;2022-09-30T17:10:43;15.40;90.50
70202;DHT22;57724;52.164;5.408;2022-09-30T17:15:41;15.90;78.90
70202;DHT22;57724;52.164;5.408;2022-09-30T17:18:09;15.90;77.80
70202;DHT22;57724;52.164;5.408;2022-09-30T17:20:42;14.70;90.50
70202;DHT22;57724;52.164;5.408;2022-09-30T17:23:09;14.70;90.80
70202;DHT22;57724;52.164;5.408;2022-09-30T17:25:40;15.70;76.60
70202;DHT22;57724;52.164;5.408;2022-09-30T17:28:09;14.60;83.40
70202;DHT22;57724;52.164;5.408;2022-09-30T17:30:37;15.70;91.20
70202;DHT22;57724;52.164;5.408;2022-09-30T17:33:04;14.40;91.10
70202;DHT22;57724;52.164;5.408;2022-09-30T17:38:05;15.60;79.60
70202;DHT22;57724;52.164;5.408;2022-09-30T17:40:32;16.70;92.00
70202;DHT22;57724;52.164;5.408;2022-09-30T17:43:17;14.90;89.50
70202;DHT22;57724;52.164;5.408;2022-09-30T17:45:45;15.40;79.80
70202;DHT22;57724;52.164;5.408;2022-09-30T17:48:14;16.70;92.20
70202;DHT22;57724;52.164;5.408;2022-09-30T17:50:44;15.30;80.30
70202;DHT22;57724;52.164;5.408;2022-09-30T17:53:13;15.40;80.40
70202;DHT22;57724;52.164;5.408;2022-09-30T17:55:44;14.60;91.80
70202;DHT22;57724;52.164;5.408;2022-09-30T17:58:32;14.10;87.90
70202;DHT22;57724;52.164;5.408;2022-09-30T18:01:07;13.90;91.90
70202;DHT22;57724;52.164;5.408;2022-09-30T18:03:35;13.90;92.10
70202;DHT22;57724;52.164;5.408;2022-09-30T18:08:31;15.00;80.20
70202;DHT22;57724;52.164;5.408;2022-09-30T18:10:58;13.60;92.50
70202;DHT22;57724;52.164;5.408;2022-09-30T18:13:26;13.70;88.60
70202;DHT22;57724;52.164;5.408;2022-09-30T18:15:56;16.30;93.10
70202;DHT22;57724;52.164;5.408;2022-09-30T18:18:28;15.30;92.00
70202;DHT22;57724;52.164;5.408;2022-09-30T18:20:54;15.90;93.20
70202;DHT22;57724;52.164;5.408;2022-09-30T18:23:21;14.60;88.60
70202;DHT22;57724;52.164;5.408;2022-09-30T18:25:48;14.00;92.80
70202;DHT22;57724;52.164;5.408;2022-09-30T18:30:44;13.70;93.00
70202;DHT22;57724;52.164;5.408;2022-09-30T18:33:12;14.30;91.20
70202;DHT22;57724;52.164;5.408;2022-09-30T18:35:42;16.00;93.70
70202;DHT22;57724;52.164;5.408;2022-09-30T18:38:09;14.40;93.30
70202;DHT22;57724;52.164;5.408;2022-09-30T18:40:41;14.50;83.10
70202;DHT22;57724;52.164;5.408;2022-09-30T18:43:12;14.60;93.30
70202;DHT22;57724;52.164;5.408;2022-09-30T18:45:39;14.60;82.30
70202;DHT22;57724;52.164;5.408;2022-09-30T18:48:09;13.60;93.10
70202;DHT22;57724;52.164;5.408;2022-09-30T18:53:04;13.50;93.20
70202;DHT22;57724;52.164;5.408;2022-09-30T18:55:36;13.40;93.10
70202;DHT22;57724;52.164;5.408;2022-09-30T18:58:04;13.60;90.00
70202;DHT22;57724;52.164;5.408;2022-09-30T19:07:54;13.70;93.20
70202;DHT22;57724;52.164;5.408;2022-09-30T19:10:21;13.50;91.40
70202;DHT22;57724;52.164;5.408;2022-09-30T19:12:50;13.70;93.30
70202;DHT22;57724;52.164;5.408;2022-09-30T19:20:12;14.50;91.40
70202;DHT22;57724;52.164;5.408;2022-09-30T19:22:43;13.40;93.30
70202;DHT22;57724;52.164;5.408;2022-09-30T19:25:11;14.10;93.40
70202;DHT22;57724;52.164;5.408;2022-09-30T19:27:40;13.80;91.10
70202;DHT22;57724;52.164;5.408;2022-09-30T19:30:13;13.40;88.10
70202;DHT22;57724;52.164;5.408;2022-09-30T19:32:40;13.80;92.70
70202;DHT22;57724;52.164;5.408;2022-09-30T19:35:09;14.50;84.00
70202;DHT22;57724;52.164;5.408;2022-09-30T19:37:36;14.50;84.70
70202;DHT22;57724;52.164;5.408;2022-09-30T19:40:03;13.50;93.50
70202;DHT22;57724;52.164;5.408;2022-09-30T19:42:47;14.50;83.10
70202;DHT22;57724;52.164;5.408;2022-09-30T19:45:14;15.90;90.50
70202;DHT22;57724;52.164;5.408;2022-09-30T19:52:36;15.30;93.60
70202;DHT22;57724;52.164;5.408;2022-09-30T19:55:16;13.60;93.20
70202;DHT22;57724;52.164;5.408;2022-09-30T19:57:43;13.70;83.90
70202;DHT22;57724;52.164;5.408;2022-09-30T20:00:10;14.40;93.20
70202;DHT22;57724;52.164;5.408;2022-09-30T20:02:40;14.50;93.20
70202;DHT22;57724;52.164;5.408;2022-09-30T20:07:35;13.50;92.80
70202;DHT22;57724;52.164;5.408;2022-09-30T20:10:01;14.50;93.00
70202;DHT22;57724;52.164;5.408;2022-09-30T20:12:29;14.70;80.70
70202;DHT22;57724;52.164;5.408;2022-09-30T20:17:41;16.00;93.10
70202;DHT22;57724;52.164;5.408;2022-09-30T20:20:08;13.70;88.30
70202;DHT22;57724;52.164;5.408;2022-09-30T20:22:53;16.20;92.90
70202;DHT22;57724;52.164;5.408;2022-09-30T20:27:47;13.60;92.10
70202;DHT22;57724;52.164;5.408;2022-09-30T20:30:19;13.70;92.10
70202;DHT22;57724;52.164;5.408;2022-09-30T20:32:46;14.30;92.20
70202;DHT22;57724;52.164;5.408;2022-09-30T20:35:12;15.40;86.10
70202;DHT22;57724;52.164;5.408;2022-09-30T20:37:40;16.20;91.10
70202;DHT22;57724;52.164;5.408;2022-09-30T20:40:07;15.50;90.20
70202;DHT22;57724;52.164;5.408;2022-09-30T20:45:05;14.80;80.70
70202;DHT22;57724;52.164;5.408;2022-09-30T20:47:36;14.50;83.90
70202;DHT22;57724;52.164;5.408;2022-09-30T20:50:04;16.20;92.50